Terminal Aerodrome Forecast
Issued by NWS

Home | Current Version | Previous Version | Text Only | Print | Product List | Glossary On
Versions: 1 2 3 4 5 6 7 8 9 10 11 12 13 14
000
FTUS45 KRIW 201100
TAFRKS
TAF
KRKS 201137Z 2012/2112 VRB06KT P6SM SKC
     FM201800 06007KT P6SM SKC
     FM210300 08015G25KT P6SM SKC=

USA.gov is the U.S. government's official web portal to all federal, state and local government web resources and services.